Time;durP1;ratioP1;P1;durP2;ratioP2;P2;SDS_P1;SDS_P2;PMS_P1;PMS_P2;Temp;Humidity;BMP_temperature;BMP_pressure;BME280_temperature;BME280_humidity;BME280_pressure;Samples;Min_cycle;Max_cycle;Signal;HPM_P1;HPM_P2
2022/10/20 00:01:34;;;;;;;;;;;17.30;99.90;;;;;;5096691;28;19904;-75
2022/10/20 00:03:59;;;;;;;;;;;17.30;99.90;;;;;;5096388;28;19958;-76
2022/10/20 00:06:26;;;;;;;;;;;17.20;99.90;;;;;;5078474;28;19914;-76
2022/10/20 00:08:53;;;;;;;;;;;17.50;99.90;;;;;;5096414;28;19904;-75
2022/10/20 00:11:19;;;;;;;;;;;17.60;99.90;;;;;;5096767;28;19949;-76
2022/10/20 00:13:46;;;;;;;;;;;17.60;99.90;;;;;;5096028;28;19904;-74
2022/10/20 00:16:12;;;;;;;;;;;17.60;99.90;;;;;;5096292;28;20343;-76
2022/10/20 00:18:38;;;;;;;;;;;17.40;99.90;;;;;;5096693;28;19904;-75
2022/10/20 00:21:04;;;;;;;;;;;17.40;99.90;;;;;;5096109;28;20287;-75
2022/10/20 00:23:29;;;;;;;;;;;17.30;99.90;;;;;;5096248;28;19986;-75
2022/10/20 00:26:05;;;;;;;;;;;17.30;99.90;;;;;;5095700;28;20364;-75
2022/10/20 00:28:31;;;;;;;;;;;17.30;99.90;;;;;;5095861;28;19908;-75
2022/10/20 00:30:56;;;;;;;;;;;17.20;99.90;;;;;;5096123;28;20275;-75
2022/10/20 00:33:22;;;;;;;;;;;17.20;99.90;;;;;;5095788;28;19919;-76
2022/10/20 00:35:48;;;;;;;;;;;17.20;99.90;;;;;;5096146;28;20349;-75
2022/10/20 00:38:13;;;;;;;;;;;17.10;99.90;;;;;;5095950;28;19911;-75
2022/10/20 00:40:39;;;;;;;;;;;17.00;99.90;;;;;;5095881;28;19994;-76
2022/10/20 00:43:08;;;;;;;;;;;16.90;99.90;;;;;;5096275;28;20318;-75
2022/10/20 00:45:34;;;;;;;;;;;16.90;99.90;;;;;;5077828;28;19904;-75
2022/10/20 00:48:03;;;;;;;;;;;16.90;99.90;;;;;;5096172;28;19915;-75
2022/10/20 00:50:30;;;;;;;;;;;16.90;99.90;;;;;;5095698;28;19904;-76
2022/10/20 00:52:56;;;;;;;;;;;16.90;99.90;;;;;;5096029;28;19904;-75
2022/10/20 00:55:24;;;;;;;;;;;16.90;99.90;;;;;;5095904;28;19904;-75
2022/10/20 00:57:50;;;;;;;;;;;17.00;99.90;;;;;;5095282;28;20387;-75
2022/10/20 01:00:16;;;;;;;;;;;17.10;99.90;;;;;;5095355;28;19904;-75
2022/10/20 01:02:42;;;;;;;;;;;17.00;99.90;;;;;;5095503;28;19927;-75
2022/10/20 01:05:08;;;;;;;;;;;16.90;99.90;;;;;;5095627;28;19988;-76
2022/10/20 01:07:34;;;;;;;;;;;16.80;99.90;;;;;;5095416;28;19965;-75
2022/10/20 01:10:01;;;;;;;;;;;16.80;99.90;;;;;;5095393;28;19911;-75
2022/10/20 01:12:37;;;;;;;;;;;16.80;99.90;;;;;;5095211;28;19939;-75
2022/10/20 01:15:06;;;;;;;;;;;16.80;99.90;;;;;;5095869;28;19911;-75
2022/10/20 01:17:50;;;;;;;;;;;16.90;99.90;;;;;;5095134;28;19904;-76
2022/10/20 01:20:22;;;;;;;;;;;16.90;99.90;;;;;;5095125;28;19934;-76
2022/10/20 01:23:06;;;;;;;;;;;16.90;99.90;;;;;;5095844;28;19953;-76
2022/10/20 01:25:31;;;;;;;;;;;16.90;99.90;;;;;;5076586;28;19911;-76
2022/10/20 01:28:00;;;;;;;;;;;17.00;99.90;;;;;;5095274;28;19908;-75
2022/10/20 01:30:26;;;;;;;;;;;17.00;99.90;;;;;;5095104;28;19927;-74
2022/10/20 01:33:01;;;;;;;;;;;17.10;99.90;;;;;;5094322;28;19982;-75
2022/10/20 01:35:45;;;;;;;;;;;17.10;99.90;;;;;;5095199;28;19950;-75
2022/10/20 01:38:32;;;;;;;;;;;17.00;99.90;;;;;;5094999;28;20384;-75
2022/10/20 01:41:15;;;;;;;;;;;16.80;99.90;;;;;;5095521;28;19912;-74
2022/10/20 01:43:42;;;;;;;;;;;16.80;99.90;;;;;;5094708;28;20005;-76
2022/10/20 01:46:09;;;;;;;;;;;16.80;99.90;;;;;;5094512;28;20356;-75
2022/10/20 01:48:36;;;;;;;;;;;16.90;99.90;;;;;;5094937;28;19904;-75
2022/10/20 01:51:02;;;;;;;;;;;16.90;99.90;;;;;;5094480;28;19904;-74
2022/10/20 01:53:28;;;;;;;;;;;16.90;99.90;;;;;;5094589;28;20041;-75
2022/10/20 01:55:56;;;;;;;;;;;16.90;99.90;;;;;;5095155;28;19943;-75
2022/10/20 01:58:27;;;;;;;;;;;17.10;99.90;;;;;;5094853;28;20387;-75
2022/10/20 02:00:54;;;;;;;;;;;17.10;99.90;;;;;;5094731;28;20391;-75
2022/10/20 02:03:25;;;;;;;;;;;17.00;99.90;;;;;;5076281;28;19904;-75
2022/10/20 02:05:53;;;;;;;;;;;17.00;99.90;;;;;;5094315;28;19999;-75
2022/10/20 02:08:19;;;;;;;;;;;17.10;99.90;;;;;;5094421;28;19914;-76
2022/10/20 02:10:49;;;;;;;;;;;17.20;99.90;;;;;;5075833;28;19994;-75
2022/10/20 02:13:16;;;;;;;;;;;17.30;99.90;;;;;;5094887;28;19904;-75
2022/10/20 02:15:50;;;;;;;;;;;17.40;99.90;;;;;;5094290;28;19904;-75
2022/10/20 02:18:18;;;;;;;;;;;17.40;99.90;;;;;;5094770;28;19910;-75
2022/10/20 02:20:45;;;;;;;;;;;17.40;99.90;;;;;;5094219;28;19957;-74
2022/10/20 02:23:11;;;;;;;;;;;17.30;99.90;;;;;;5096335;28;19904;-75
2022/10/20 02:25:38;;;;;;;;;;;17.30;99.90;;;;;;5082830;28;20291;-75
2022/10/20 02:28:04;;;;;;;;;;;17.20;99.90;;;;;;5101275;28;19912;-74
2022/10/20 02:30:30;;;;;;;;;;;17.20;99.90;;;;;;5101336;28;19959;-75
2022/10/20 02:32:55;;;;;;;;;;;17.20;99.90;;;;;;5100594;28;19903;-76
2022/10/20 02:35:22;;;;;;;;;;;17.20;99.90;;;;;;5101322;28;19908;-76
2022/10/20 02:37:48;;;;;;;;;;;17.30;99.90;;;;;;5100986;28;20390;-76
2022/10/20 02:40:14;;;;;;;;;;;17.30;99.90;;;;;;5100828;28;19916;-75
2022/10/20 02:42:42;;;;;;;;;;;17.30;99.90;;;;;;5083199;28;19959;-75
2022/10/20 02:45:08;;;;;;;;;;;17.30;99.90;;;;;;5100866;28;19936;-75
2022/10/20 02:47:33;;;;;;;;;;;17.30;99.90;;;;;;5100834;28;19924;-75
2022/10/20 02:50:00;;;;;;;;;;;17.30;99.90;;;;;;5100932;28;19904;-75
2022/10/20 02:52:25;;;;;;;;;;;17.30;99.90;;;;;;5100986;28;19912;-76
2022/10/20 02:54:51;;;;;;;;;;;17.30;99.90;;;;;;5082672;28;19908;-76
2022/10/20 02:57:17;;;;;;;;;;;17.20;99.90;;;;;;5100997;28;19954;-75
2022/10/20 02:59:42;;;;;;;;;;;17.20;99.90;;;;;;5100689;28;19953;-75
2022/10/20 03:02:08;;;;;;;;;;;17.20;99.90;;;;;;5082579;28;19991;-76
2022/10/20 03:04:33;;;;;;;;;;;17.10;99.90;;;;;;5100877;28;19904;-75
2022/10/20 03:06:59;;;;;;;;;;;17.00;99.90;;;;;;5100626;28;19908;-76
2022/10/20 03:09:24;;;;;;;;;;;16.90;99.90;;;;;;5101043;28;19904;-76
2022/10/20 03:11:50;;;;;;;;;;;16.90;99.90;;;;;;5100497;28;20261;-76
2022/10/20 03:14:15;;;;;;;;;;;17.00;99.90;;;;;;5100568;28;19904;-75
2022/10/20 03:16:41;;;;;;;;;;;17.00;99.90;;;;;;5100875;28;20382;-76
2022/10/20 03:19:06;;;;;;;;;;;17.00;99.90;;;;;;5100691;28;19954;-75
2022/10/20 03:21:32;;;;;;;;;;;17.00;99.90;;;;;;5100479;28;19911;-75
2022/10/20 03:23:57;;;;;;;;;;;17.00;99.90;;;;;;5100341;28;19904;-75
2022/10/20 03:26:23;;;;;;;;;;;17.00;99.90;;;;;;5100186;28;19912;-75
2022/10/20 03:28:48;;;;;;;;;;;17.00;99.90;;;;;;5100728;28;19904;-75
2022/10/20 03:31:14;;;;;;;;;;;16.90;99.90;;;;;;5100521;28;19911;-75
2022/10/20 03:33:39;;;;;;;;;;;16.90;99.90;;;;;;5099832;28;19919;-76
2022/10/20 03:36:05;;;;;;;;;;;16.90;99.90;;;;;;5096812;28;19911;-75
2022/10/20 03:38:31;;;;;;;;;;;16.90;99.90;;;;;;5097196;28;20380;-75
2022/10/20 03:40:56;;;;;;;;;;;16.90;99.90;;;;;;5097390;28;19911;-75
2022/10/20 03:43:22;;;;;;;;;;;16.90;99.90;;;;;;5097162;28;19947;-76
2022/10/20 03:45:47;;;;;;;;;;;16.90;99.90;;;;;;5097073;28;19913;-75
2022/10/20 03:48:13;;;;;;;;;;;16.90;99.90;;;;;;5096985;28;19916;-75
2022/10/20 03:50:39;;;;;;;;;;;16.90;99.90;;;;;;5097470;28;19904;-75
2022/10/20 03:53:05;;;;;;;;;;;16.80;99.90;;;;;;5096822;28;19996;-75
2022/10/20 03:55:30;;;;;;;;;;;16.80;99.90;;;;;;5097141;28;19939;-76
2022/10/20 03:57:56;;;;;;;;;;;16.80;99.90;;;;;;5096896;28;19910;-74
2022/10/20 04:00:21;;;;;;;;;;;16.70;99.90;;;;;;5097249;28;19911;-75
2022/10/20 04:02:47;;;;;;;;;;;16.40;99.90;;;;;;5096779;28;19904;-75
2022/10/20 04:05:14;;;;;;;;;;;16.10;99.90;;;;;;5096217;28;19947;-75
2022/10/20 04:07:40;;;;;;;;;;;15.90;99.90;;;;;;5096480;28;19908;-75
2022/10/20 04:10:06;;;;;;;;;;;15.70;99.90;;;;;;5096685;28;19911;-76
2022/10/20 04:12:31;;;;;;;;;;;15.40;99.90;;;;;;5095964;28;19911;-76
2022/10/20 04:14:57;;;;;;;;;;;15.20;99.90;;;;;;5096851;28;19904;-74
2022/10/20 04:17:22;;;;;;;;;;;15.10;99.90;;;;;;5096200;28;19908;-75
2022/10/20 04:19:48;;;;;;;;;;;15.10;99.90;;;;;;5096510;28;20353;-75
2022/10/20 04:22:13;;;;;;;;;;;14.90;99.90;;;;;;5096428;28;19908;-75
2022/10/20 04:24:39;;;;;;;;;;;14.80;99.90;;;;;;5096520;28;20000;-75
2022/10/20 04:27:05;;;;;;;;;;;14.70;99.90;;;;;;5096191;28;19908;-76
2022/10/20 04:29:30;;;;;;;;;;;14.70;99.90;;;;;;5096268;28;19904;-76
2022/10/20 04:31:56;;;;;;;;;;;14.70;99.90;;;;;;5096264;28;19910;-75
2022/10/20 04:34:21;;;;;;;;;;;14.80;99.90;;;;;;5095596;28;19916;-75
2022/10/20 04:36:47;;;;;;;;;;;14.80;99.90;;;;;;5096684;28;19926;-75
2022/10/20 04:39:12;;;;;;;;;;;14.70;99.90;;;;;;5095962;28;19908;-75
2022/10/20 04:41:38;;;;;;;;;;;14.60;99.90;;;;;;5096156;28;19904;-75
2022/10/20 04:44:03;;;;;;;;;;;14.60;99.90;;;;;;5095882;28;20370;-75
2022/10/20 04:46:29;;;;;;;;;;;14.50;99.90;;;;;;5096009;28;19911;-76
2022/10/20 04:48:54;;;;;;;;;;;14.50;99.90;;;;;;5095787;28;20291;-74
2022/10/20 04:51:20;;;;;;;;;;;14.50;99.90;;;;;;5096022;28;19904;-75
2022/10/20 04:53:45;;;;;;;;;;;14.50;99.90;;;;;;5095633;28;19904;-75
2022/10/20 04:56:12;;;;;;;;;;;14.50;99.90;;;;;;5096198;28;19911;-76
2022/10/20 04:58:38;;;;;;;;;;;14.40;99.90;;;;;;5095428;28;19943;-75
2022/10/20 05:01:05;;;;;;;;;;;14.30;99.90;;;;;;5095708;28;19946;-75
2022/10/20 05:03:31;;;;;;;;;;;14.40;99.90;;;;;;5096058;28;19908;-75
2022/10/20 05:06:07;;;;;;;;;;;14.60;99.90;;;;;;5095782;28;20264;-75
2022/10/20 05:08:32;;;;;;;;;;;14.80;99.90;;;;;;5095546;28;19908;-76
2022/10/20 05:10:59;;;;;;;;;;;14.80;99.90;;;;;;5076765;28;20287;-75
2022/10/20 05:13:25;;;;;;;;;;;14.80;99.90;;;;;;5076828;28;19955;-75
2022/10/20 05:15:51;;;;;;;;;;;14.80;99.90;;;;;;5095791;28;19943;-75
2022/10/20 05:18:16;;;;;;;;;;;14.80;99.90;;;;;;5077166;28;19957;-75
2022/10/20 05:20:42;;;;;;;;;;;14.90;99.90;;;;;;5077079;28;19904;-76
2022/10/20 05:23:07;;;;;;;;;;;15.00;99.90;;;;;;5095534;28;20286;-76
2022/10/20 05:25:35;;;;;;;;;;;15.10;99.90;;;;;;5094811;28;19908;-75
2022/10/20 05:28:00;;;;;;;;;;;15.00;99.90;;;;;;5094500;28;20371;-75
2022/10/20 05:30:26;;;;;;;;;;;15.00;99.90;;;;;;5095139;28;19904;-76
2022/10/20 05:32:51;;;;;;;;;;;15.00;99.90;;;;;;5094990;28;19911;-75
2022/10/20 05:35:17;;;;;;;;;;;15.10;99.90;;;;;;5093914;28;19912;-75
2022/10/20 05:37:42;;;;;;;;;;;14.90;99.90;;;;;;5094468;28;19973;-76
2022/10/20 05:40:08;;;;;;;;;;;14.90;99.90;;;;;;5095285;28;20348;-74
2022/10/20 05:42:34;;;;;;;;;;;14.90;99.90;;;;;;5094845;28;19926;-75
2022/10/20 05:44:59;;;;;;;;;;;14.90;99.90;;;;;;5094748;28;19904;-75
2022/10/20 05:47:25;;;;;;;;;;;14.90;99.90;;;;;;5094580;28;19912;-75
2022/10/20 05:49:50;;;;;;;;;;;14.80;99.90;;;;;;5095272;28;19961;-75
2022/10/20 05:52:16;;;;;;;;;;;14.70;99.90;;;;;;5094460;28;19927;-75
2022/10/20 05:54:42;;;;;;;;;;;14.90;99.90;;;;;;5094680;28;19911;-75
2022/10/20 05:57:07;;;;;;;;;;;15.10;99.90;;;;;;5094788;28;20013;-75
2022/10/20 05:59:33;;;;;;;;;;;15.00;99.90;;;;;;5093726;28;19908;-75
2022/10/20 06:01:58;;;;;;;;;;;15.00;99.90;;;;;;5094824;28;20391;-75
2022/10/20 06:04:24;;;;;;;;;;;14.90;99.90;;;;;;5094238;28;20272;-76
2022/10/20 06:06:50;;;;;;;;;;;14.80;99.90;;;;;;5094430;28;19974;-76
2022/10/20 06:09:17;;;;;;;;;;;14.80;99.90;;;;;;5094707;28;19904;-76
2022/10/20 06:11:42;;;;;;;;;;;14.70;99.90;;;;;;5094612;28;19908;-75
2022/10/20 06:14:08;;;;;;;;;;;14.60;99.90;;;;;;5094262;28;20349;-74
2022/10/20 06:16:34;;;;;;;;;;;14.40;99.90;;;;;;5094638;28;19911;-75
2022/10/20 06:18:59;;;;;;;;;;;14.40;99.90;;;;;;5094492;28;19904;-75
2022/10/20 06:21:26;;;;;;;;;;;14.40;99.90;;;;;;5094540;28;19904;-75
2022/10/20 06:23:52;;;;;;;;;;;14.30;99.90;;;;;;5094249;28;19904;-75
2022/10/20 06:26:24;;;;;;;;;;;14.20;99.90;;;;;;5094111;28;19911;-76
2022/10/20 06:28:53;;;;;;;;;;;14.10;99.90;;;;;;5093857;28;19904;-75
2022/10/20 06:31:23;;;;;;;;;;;14.00;99.90;;;;;;5094279;28;19911;-74
2022/10/20 06:33:48;;;;;;;;;;;14.00;99.90;;;;;;5093747;28;19912;-74
2022/10/20 06:36:14;;;;;;;;;;;14.00;99.90;;;;;;5094228;28;19912;-76
2022/10/20 06:38:41;;;;;;;;;;;14.00;99.90;;;;;;5094151;28;19911;-75
2022/10/20 06:41:08;;;;;;;;;;;14.00;99.90;;;;;;5094677;28;19953;-76
2022/10/20 06:43:34;;;;;;;;;;;14.00;99.90;;;;;;5093898;28;19995;-75
2022/10/20 06:46:01;;;;;;;;;;;13.90;99.90;;;;;;5094521;28;19940;-74
2022/10/20 06:48:27;;;;;;;;;;;13.90;99.90;;;;;;5093696;28;19912;-76
2022/10/20 06:50:56;;;;;;;;;;;14.00;99.90;;;;;;5083028;28;19915;-79
2022/10/20 06:53:21;;;;;;;;;;;14.10;99.90;;;;;;5094223;28;19910;-77
2022/10/20 06:55:56;;;;;;;;;;;14.10;99.90;;;;;;5094461;28;19982;-78
2022/10/20 06:58:22;;;;;;;;;;;14.10;99.90;;;;;;5094049;28;19912;-80
2022/10/20 07:00:56;;;;;;;;;;;14.20;99.90;;;;;;5077056;28;19915;-79
2022/10/20 07:03:21;;;;;;;;;;;14.00;99.90;;;;;;5067012;28;19916;-77
2022/10/20 07:05:47;;;;;;;;;;;14.00;99.90;;;;;;5055758;28;20361;-81
2022/10/20 07:08:12;;;;;;;;;;;14.00;99.90;;;;;;5074049;28;19930;-77
2022/10/20 07:10:38;;;;;;;;;;;14.00;99.90;;;;;;5077531;28;19905;-80
2022/10/20 07:13:03;;;;;;;;;;;13.90;99.90;;;;;;5078202;28;19905;-78
2022/10/20 07:15:29;;;;;;;;;;;13.90;99.90;;;;;;5077496;28;19987;-74
2022/10/20 07:17:54;;;;;;;;;;;13.80;99.90;;;;;;5076578;28;19915;-79
2022/10/20 07:20:20;;;;;;;;;;;13.80;99.90;;;;;;5076616;28;19908;-76
2022/10/20 07:22:45;;;;;;;;;;;13.90;99.90;;;;;;5077998;28;19904;-77
2022/10/20 07:25:11;;;;;;;;;;;13.90;99.90;;;;;;5077680;28;19955;-78
2022/10/20 07:27:36;;;;;;;;;;;13.90;99.90;;;;;;5076215;28;19918;-78
2022/10/20 07:30:02;;;;;;;;;;;13.90;99.90;;;;;;5077227;28;19904;-78
2022/10/20 07:32:29;;;;;;;;;;;14.00;99.90;;;;;;5058995;28;19951;-77
2022/10/20 07:34:54;;;;;;;;;;;13.90;99.90;;;;;;5076919;28;19912;-76
2022/10/20 07:37:20;;;;;;;;;;;14.00;99.90;;;;;;5077778;28;19905;-77
2022/10/20 07:39:45;;;;;;;;;;;14.00;99.90;;;;;;5077450;28;20383;-76
2022/10/20 07:42:11;;;;;;;;;;;14.10;99.90;;;;;;5077620;28;20360;-76
2022/10/20 07:44:36;;;;;;;;;;;14.00;99.90;;;;;;5077160;28;19911;-74
2022/10/20 07:47:02;;;;;;;;;;;14.00;99.90;;;;;;5077616;28;19913;-77
2022/10/20 07:49:27;;;;;;;;;;;14.00;99.90;;;;;;5077519;28;20470;-77
2022/10/20 07:51:53;;;;;;;;;;;13.90;99.90;;;;;;5060000;28;19947;-77
2022/10/20 07:54:18;;;;;;;;;;;13.90;99.90;;;;;;5076744;28;20003;-77
2022/10/20 07:56:45;;;;;;;;;;;14.00;99.90;;;;;;5076565;28;19904;-79
2022/10/20 07:59:11;;;;;;;;;;;14.10;99.90;;;;;;5075634;28;19912;-78
2022/10/20 08:01:37;;;;;;;;;;;14.10;99.90;;;;;;5073382;28;20356;-76
2022/10/20 08:04:02;;;;;;;;;;;14.20;99.90;;;;;;5078966;28;19915;-76
2022/10/20 08:06:28;;;;;;;;;;;14.20;99.90;;;;;;5073928;28;19986;-75
2022/10/20 08:08:54;;;;;;;;;;;14.20;99.90;;;;;;5076818;28;20280;-75
2022/10/20 08:11:19;;;;;;;;;;;14.20;99.90;;;;;;5076404;28;20026;-74
2022/10/20 08:13:45;;;;;;;;;;;14.30;99.90;;;;;;5092620;28;19910;-76
2022/10/20 08:16:11;;;;;;;;;;;14.40;99.90;;;;;;5096597;28;19911;-76
2022/10/20 08:18:37;;;;;;;;;;;14.40;99.90;;;;;;5096163;28;19904;-75
2022/10/20 08:21:11;;;;;;;;;;;14.50;99.90;;;;;;5095651;28;19908;-76
2022/10/20 08:23:37;;;;;;;;;;;14.60;99.90;;;;;;5094139;28;19904;-76
2022/10/20 08:26:02;;;;;;;;;;;15.00;99.90;;;;;;5087765;28;19908;-76
2022/10/20 08:28:28;;;;;;;;;;;15.50;99.90;;;;;;5076127;28;19908;-76
2022/10/20 08:30:53;;;;;;;;;;;15.70;99.90;;;;;;5076315;28;20245;-78
2022/10/20 08:33:19;;;;;;;;;;;16.00;99.90;;;;;;5075682;28;19950;-77
2022/10/20 08:35:44;;;;;;;;;;;16.10;99.90;;;;;;5076204;28;19908;-74
2022/10/20 08:38:10;;;;;;;;;;;16.20;99.90;;;;;;5074963;28;19909;-77
2022/10/20 08:40:38;;;;;;;;;;;16.50;99.90;;;;;;5057807;28;20003;-76
2022/10/20 08:43:04;;;;;;;;;;;16.90;99.90;;;;;;5076379;28;19953;-76
2022/10/20 08:45:29;;;;;;;;;;;17.00;99.90;;;;;;5075987;28;19959;-78
2022/10/20 08:47:57;;;;;;;;;;;17.20;99.90;;;;;;5074591;28;20406;-79
2022/10/20 08:50:26;;;;;;;;;;;17.30;99.90;;;;;;5078124;28;20046;-75
2022/10/20 08:52:53;;;;;;;;;;;17.20;99.90;;;;;;5075027;28;20284;-76
2022/10/20 08:55:25;;;;;;;;;;;17.40;99.90;;;;;;5075606;28;19909;-75
2022/10/20 08:57:52;;;;;;;;;;;17.40;99.90;;;;;;5075222;28;19908;-78
2022/10/20 09:00:19;;;;;;;;;;;17.60;99.90;;;;;;5077011;28;20392;-79
2022/10/20 09:02:46;;;;;;;;;;;17.60;99.90;;;;;;5075230;28;19905;-80
2022/10/20 09:05:13;;;;;;;;;;;17.20;99.90;;;;;;5076489;28;19908;-80
2022/10/20 09:07:38;;;;;;;;;;;17.10;99.90;;;;;;5073886;28;19912;-74
2022/10/20 09:10:23;;;;;;;;;;;17.50;99.90;;;;;;5075140;28;19904;-79
2022/10/20 09:12:49;;;;;;;;;;;17.80;99.90;;;;;;5075326;28;19944;-78
2022/10/20 09:15:16;;;;;;;;;;;18.10;99.90;;;;;;5078429;28;19908;-77
2022/10/20 09:17:53;;;;;;;;;;;18.30;99.90;;;;;;5075100;28;20375;-77
2022/10/20 09:20:30;;;;;;;;;;;18.50;99.90;;;;;;5057052;28;19905;-78
2022/10/20 09:22:56;;;;;;;;;;;18.70;99.90;;;;;;5074439;28;20015;-77
2022/10/20 09:25:24;;;;;;;;;;;18.80;99.90;;;;;;5075163;28;19905;-77
2022/10/20 09:27:50;;;;;;;;;;;19.00;99.90;;;;;;5077191;28;19965;-79
2022/10/20 09:30:16;;;;;;;;;;;19.00;99.90;;;;;;5074976;28;19954;-78
2022/10/20 09:32:41;;;;;;;;;;;18.90;99.90;;;;;;5073849;28;19904;-77
2022/10/20 09:35:11;;;;;;;;;;;19.10;99.90;;;;;;5074019;28;19943;-77
2022/10/20 09:37:37;;;;;;;;;;;19.20;99.90;;;;;;5073810;28;19975;-77
2022/10/20 09:40:03;;;;;;;;;;;19.20;99.90;;;;;;5074782;28;19912;-79
2022/10/20 09:42:30;;;;;;;;;;;19.30;99.90;;;;;;5073795;28;19908;-78
2022/10/20 09:44:57;;;;;;;;;;;19.50;99.90;;;;;;5074669;28;19904;-78
2022/10/20 09:47:23;;;;;;;;;;;19.60;99.90;;;;;;5077328;28;19927;-78
2022/10/20 09:49:59;;;;;;;;;;;19.80;99.90;;;;;;5083839;28;19908;-78
2022/10/20 09:52:29;;;;;;;;;;;19.90;99.90;;;;;;5073955;28;19908;-80
2022/10/20 09:55:07;;;;;;;;;;;19.90;99.90;;;;;;5057168;28;19904;-77
2022/10/20 09:57:33;;;;;;;;;;;20.00;99.90;;;;;;5074522;28;20282;-78
2022/10/20 09:59:59;;;;;;;;;;;20.00;99.90;;;;;;5073488;28;19911;-75
2022/10/20 10:02:26;;;;;;;;;;;20.10;99.90;;;;;;5074126;28;20265;-78
2022/10/20 10:04:52;;;;;;;;;;;20.10;99.90;;;;;;5074140;28;19911;-78
2022/10/20 10:07:21;;;;;;;;;;;20.30;99.90;;;;;;5074119;28;19912;-77
2022/10/20 10:10:06;;;;;;;;;;;20.20;99.90;;;;;;5074289;28;19911;-79
2022/10/20 10:12:33;;;;;;;;;;;20.20;99.90;;;;;;5077883;28;19941;-78
2022/10/20 10:14:58;;;;;;;;;;;20.30;99.90;;;;;;5089690;28;19970;-77
2022/10/20 10:17:28;;;;;;;;;;;20.20;99.90;;;;;;5094444;28;19957;-76
2022/10/20 10:19:54;;;;;;;;;;;20.20;99.90;;;;;;5094928;28;20000;-78
2022/10/20 10:22:19;;;;;;;;;;;20.30;99.90;;;;;;5074806;28;19909;-77
2022/10/20 10:24:46;;;;;;;;;;;20.30;99.90;;;;;;5053833;28;19963;-77
2022/10/20 10:27:28;;;;;;;;;;;20.30;99.90;;;;;;5071654;28;19908;-77
2022/10/20 10:29:54;;;;;;;;;;;20.30;99.90;;;;;;5076063;28;20344;-78
2022/10/20 10:32:24;;;;;;;;;;;20.40;99.90;;;;;;5083159;28;19905;-78
2022/10/20 12:36:41;;;;;;;;;;;20.50;99.90;;;;;;4284566;28;20010;-77
2022/10/20 12:39:17;;;;;;;;;;;20.50;99.90;;;;;;5055963;28;19923;-73
2022/10/20 12:42:12;;;;;;;;;;;20.50;99.90;;;;;;5055628;28;19912;-74
2022/10/20 12:44:41;;;;;;;;;;;20.60;99.90;;;;;;4983275;28;19913;-73
2022/10/20 12:47:08;;;;;;;;;;;20.50;99.90;;;;;;5055222;28;19987;-73
2022/10/20 12:49:38;;;;;;;;;;;20.40;99.90;;;;;;5055598;28;20425;-73
2022/10/20 12:52:06;;;;;;;;;;;20.30;99.90;;;;;;5055289;28;19905;-73
2022/10/20 12:54:38;;;;;;;;;;;20.40;99.90;;;;;;5055217;28;19905;-82
2022/10/20 12:57:22;;;;;;;;;;;20.50;99.90;;;;;;5054931;28;20058;-81
2022/10/20 12:59:48;;;;;;;;;;;20.60;99.90;;;;;;5055578;28;19963;-75
2022/10/20 13:02:16;;;;;;;;;;;20.60;99.90;;;;;;5054388;28;20296;-78
2022/10/20 13:04:52;;;;;;;;;;;20.60;99.90;;;;;;5055508;28;19952;-76
2022/10/20 13:07:36;;;;;;;;;;;20.60;99.90;;;;;;5054906;28;20280;-73
2022/10/20 13:10:22;;;;;;;;;;;20.70;99.90;;;;;;5054498;28;19912;-73
2022/10/20 13:12:47;;;;;;;;;;;20.80;99.90;;;;;;5053939;28;19908;-73
2022/10/20 13:15:16;;;;;;;;;;;20.70;99.90;;;;;;5054932;28;20356;-77
2022/10/20 13:17:54;;;;;;;;;;;20.60;99.90;;;;;;5054521;28;19944;-78
2022/10/20 13:20:40;;;;;;;;;;;20.60;99.90;;;;;;5054299;28;19909;-81
2022/10/20 13:23:09;;;;;;;;;;;20.60;99.90;;;;;;5053860;28;19908;-78
2022/10/20 13:25:55;;;;;;;;;;;20.60;99.90;;;;;;5054521;28;20360;-75
2022/10/20 13:28:22;;;;;;;;;;;20.60;99.90;;;;;;5053069;28;19928;-76
2022/10/20 13:30:51;;;;;;;;;;;20.80;99.90;;;;;;5054358;28;19919;-80
2022/10/20 13:33:43;;;;;;;;;;;21.00;99.90;;;;;;5036366;28;20371;-78
2022/10/20 13:36:27;;;;;;;;;;;21.10;99.90;;;;;;5000601;28;19923;-79
2022/10/20 13:38:59;;;;;;;;;;;21.20;99.90;;;;;;5039275;28;19917;-74
2022/10/20 13:41:43;;;;;;;;;;;21.20;99.90;;;;;;5034426;28;20281;-73
2022/10/20 13:44:30;;;;;;;;;;;21.10;99.90;;;;;;5034771;28;19909;-74
2022/10/20 13:46:56;;;;;;;;;;;21.10;99.90;;;;;;5034794;28;19912;-74
2022/10/20 13:49:41;;;;;;;;;;;21.00;99.90;;;;;;5034149;28;19905;-73
2022/10/20 13:52:10;;;;;;;;;;;21.00;99.90;;;;;;5041354;28;20392;-73
2022/10/20 13:54:36;;;;;;;;;;;21.00;99.90;;;;;;5053369;28;20015;-73
2022/10/20 13:57:02;;;;;;;;;;;21.10;99.90;;;;;;5049752;28;20471;-76
2022/10/20 13:59:28;;;;;;;;;;;21.10;99.90;;;;;;5052508;28;19923;-77
2022/10/20 14:01:56;;;;;;;;;;;21.20;99.90;;;;;;5052586;28;19916;-79
2022/10/20 14:04:27;;;;;;;;;;;21.20;99.90;;;;;;5053227;28;19909;-81
2022/10/20 14:06:53;;;;;;;;;;;21.20;99.90;;;;;;5053182;28;19905;-78
2022/10/20 14:09:23;;;;;;;;;;;21.30;99.90;;;;;;5035626;28;19904;-77
2022/10/20 14:11:52;;;;;;;;;;;21.30;99.90;;;;;;5054049;28;19912;-78
2022/10/20 14:14:20;;;;;;;;;;;21.20;99.90;;;;;;5053728;28;19912;-79
2022/10/20 14:16:56;;;;;;;;;;;21.20;99.90;;;;;;5051965;28;20273;-77
2022/10/20 14:19:26;;;;;;;;;;;21.10;99.90;;;;;;5050992;28;20380;-80
2022/10/20 14:21:55;;;;;;;;;;;21.10;99.90;;;;;;5053121;28;20279;-76
2022/10/20 14:24:23;;;;;;;;;;;21.10;99.90;;;;;;5051531;28;20370;-77
2022/10/20 14:26:49;;;;;;;;;;;21.10;99.90;;;;;;5052970;28;19979;-79
2022/10/20 14:29:15;;;;;;;;;;;21.10;99.90;;;;;;5052445;28;20322;-79
2022/10/20 14:31:41;;;;;;;;;;;21.10;99.90;;;;;;5053586;28;19909;-78
2022/10/20 14:34:17;;;;;;;;;;;21.20;99.90;;;;;;5052824;28;19904;-79
2022/10/20 14:36:43;;;;;;;;;;;21.20;99.90;;;;;;5052687;28;19913;-78
2022/10/20 14:39:19;;;;;;;;;;;21.20;99.90;;;;;;5052437;28;19909;-75
2022/10/20 14:41:45;;;;;;;;;;;21.10;99.90;;;;;;5051532;28;19992;-73
2022/10/20 14:44:17;;;;;;;;;;;21.10;99.90;;;;;;5052474;28;19967;-74
2022/10/20 14:46:46;;;;;;;;;;;21.20;99.90;;;;;;5051929;28;20007;-76
2022/10/20 14:49:15;;;;;;;;;;;21.30;99.90;;;;;;5050910;28;19909;-78
2022/10/20 14:52:00;;;;;;;;;;;21.40;99.90;;;;;;5033774;28;19905;-73
2022/10/20 14:54:34;;;;;;;;;;;21.40;99.90;;;;;;5033763;28;19913;-80
2022/10/20 14:57:20;;;;;;;;;;;21.30;99.90;;;;;;5033663;28;19916;-73
2022/10/20 14:59:50;;;;;;;;;;;21.00;99.90;;;;;;5050921;28;19915;-73
2022/10/20 15:02:19;;;;;;;;;;;20.90;99.90;;;;;;5053259;28;19951;-79
2022/10/20 15:04:46;;;;;;;;;;;20.90;99.90;;;;;;5052159;28;19908;-83
2022/10/20 15:07:19;;;;;;;;;;;20.90;99.90;;;;;;5049731;28;19909;-74
2022/10/20 15:09:49;;;;;;;;;;;20.80;99.90;;;;;;5051141;28;19979;-75
2022/10/20 15:12:17;;;;;;;;;;;20.70;99.90;;;;;;5052693;28;19908;-75
2022/10/20 15:14:44;;;;;;;;;;;20.60;99.90;;;;;;5053704;28;20379;-76
2022/10/20 15:17:29;;;;;;;;;;;20.60;99.90;;;;;;5053045;28;19916;-74
2022/10/20 15:19:54;;;;;;;;;;;20.50;99.90;;;;;;5053671;28;20249;-75
2022/10/20 15:22:20;;;;;;;;;;;20.20;99.90;;;;;;5053108;28;19912;-74
2022/10/20 15:24:45;;;;;;;;;;;20.00;99.90;;;;;;5053069;28;19911;-74
2022/10/20 15:27:14;;;;;;;;;;;19.90;99.90;;;;;;5053081;28;19905;-77
2022/10/20 15:29:44;;;;;;;;;;;19.80;99.90;;;;;;5053590;28;19928;-73
2022/10/20 15:32:09;;;;;;;;;;;19.80;99.90;;;;;;5056659;28;20390;-74
2022/10/20 15:34:35;;;;;;;;;;;19.70;99.90;;;;;;5056608;28;19904;-74
2022/10/20 15:37:00;;;;;;;;;;;19.60;99.90;;;;;;5056617;28;19917;-73
2022/10/20 15:39:26;;;;;;;;;;;19.50;99.90;;;;;;5056765;28;19909;-73
2022/10/20 15:41:51;;;;;;;;;;;19.60;99.90;;;;;;5056436;28;19905;-75
2022/10/20 15:44:20;;;;;;;;;;;19.60;99.90;;;;;;5038428;28;19904;-73
2022/10/20 15:46:45;;;;;;;;;;;19.70;99.90;;;;;;5056940;28;19912;-74
2022/10/20 15:49:11;;;;;;;;;;;19.70;99.90;;;;;;5056327;28;19904;-76
2022/10/20 15:51:39;;;;;;;;;;;19.70;99.90;;;;;;5056573;28;19905;-73
2022/10/20 15:54:04;;;;;;;;;;;19.80;99.90;;;;;;5056551;28;19905;-74
2022/10/20 15:56:31;;;;;;;;;;;19.80;99.90;;;;;;5056741;28;19905;-74
2022/10/20 15:58:57;;;;;;;;;;;19.90;99.90;;;;;;5056067;28;19909;-75
2022/10/20 16:01:22;;;;;;;;;;;19.90;99.90;;;;;;5038240;28;19912;-75
2022/10/20 16:03:48;;;;;;;;;;;19.90;99.90;;;;;;5056075;28;19947;-73
2022/10/20 16:06:14;;;;;;;;;;;19.80;99.90;;;;;;5056252;28;19995;-75
2022/10/20 16:08:44;;;;;;;;;;;19.70;99.90;;;;;;5056012;28;20364;-73
2022/10/20 16:11:09;;;;;;;;;;;19.70;99.90;;;;;;5056246;28;19904;-74
2022/10/20 16:13:37;;;;;;;;;;;19.60;99.90;;;;;;5055881;28;19928;-74
2022/10/20 16:16:03;;;;;;;;;;;19.50;99.90;;;;;;5056107;28;19912;-75
2022/10/20 16:18:28;;;;;;;;;;;19.50;99.90;;;;;;5055750;28;19912;-74
2022/10/20 16:20:56;;;;;;;;;;;19.50;99.90;;;;;;5056302;28;19905;-73
2022/10/20 16:23:21;;;;;;;;;;;19.50;99.90;;;;;;5037791;28;20133;-75